Terminal Aerodrome Forecast
Issued by NWS Binghamton, NY

Home | Current Version | Previous Version | Text Only | Print | Product List | Glossary On
Versions: 1 2 3 4 5 6 7 8 9 10 11 12 13 14 15 16 17 18 19 20
000
FTUS41 KBGM 062300
TAFAVP
TAF
KAVP 062332Z 0700/0724 24006KT P6SM BKN250
     FM071100 24005KT P6SM SCT050 BKN120
     FM072200 25007KT P6SM OVC050=

USA.gov is the U.S. government's official web portal to all federal, state and local government web resources and services.